Tampa, Florida
Traffic Map
Current Weather Conditions
Tampa, Florida
Broken Clouds
Broken Clouds
26°
Feels Like: 27°
Wind Chill: 26° Ceiling: 25000
Heat Index: 27° Visibility: 10mi
Dew Point: 22° Wind: 6mph
Humidity: 79% Direction: ° ()
Pressure: 29.96in Gusts: 0mph
Raw Report DataKTPA 210153Z VRB05KT 10SM FEW020 SCT030 BKN250 26/22 A2996 RMK AO2 SLP144 T02560217
Traffic Incident Summary
Active as of:
Severity:
Category:
InformationThere was an issue retrieving the traffic information for this location. Please try a different location or try again shortly.
Advertisements
Track Severe Weather on mobile